Valrico, FL (33594)

5:38 PM EDT on August 29, 2016 (GMT -0400)
Innergary Point - Hardin Diamond Cut Lawn Care 'LLC (813-382-8119) | | Change Station

Elev 105 ft 27.93 °N, 82.25 °W | Updated 4 seconds ago

Mostly Cloudy
Mostly Cloudy
78.6 °F
Feels Like 82 °F
N
0.0
Wind Variable Wind from NW
Gusts 1.0 mph

Today
High -- | Low -- °F
--% Chance of Precip.
Yesterday
High -- | Low -- °F
Precip. -- in
Pressure 29.93 in
Visibility 10.0 miles
Clouds Scattered Clouds 2500 ft
Scattered Clouds 3600 ft
Mostly Cloudy 6500 ft
Heat Index 82 °F
Dew Point 75 °F
Humidity 88%
Rainfall 0.40 in
Snow Depth Not available.
7:06 AM 7:52 PM
Waning Crescent, 7% visible
METAR KPCM 292135Z AUTO 09003KT 10SM SCT025 SCT036 BKN065 28/26 A2993 RMK AO2
Pressure 29.93 in
Visibility 10.0 miles
Clouds Scattered Clouds 2500 ft
Scattered Clouds 3600 ft
Mostly Cloudy 6500 ft
Heat Index 82 °F
Dew Point 75 °F
Humidity 88%
Rainfall 0.40 in
Snow Depth Not available.
7:06 AM 7:52 PM
Waning Crescent, 7% visible
METAR KPCM 292135Z AUTO 09003KT 10SM SCT025 SCT036 BKN065 28/26 A2993 RMK AO2
Tropical Depression Nine was centered about 170 miles west-southwest of Key West, Florida, as of late Monday morning. The depression may struggle a bit in the southern Gulf of Mexico before finally making a Gulf Coast landfall later this week with soaking rain and gusty winds.

This latest system was designated a tropical depression Sunday after a Hurricane Hunter reconnaissance mission finally found a sufficiently organized low-pressure center with collocated shower and thunderstorm activity.

10-Day Weather Forecast

Almanac

Astronomy

Aug. 29, 2016 Rise Set
Actual Time
Civil Twilight
Nautical Twilight
Astronomical Twilight
Moon
Length of Visible Light
Length of Day
Tomorrow will be .
, % of the Moon is Illuminated

Today's Extremes

State Highs State Lows

Community

WunderPhotos

Upload Photos

1,935,679 photos uploaded!

WunderBlog® & News

Nearby

Air Quality

  Air Quality AQ Index Pollutant
Not available.

Snow Depth

Station Depth Elevation

Earthquake Activity

City Distance Mag. Time & Date
Minimum magnitude displayed is 2.5.

Coastal Water Temperatures

Place Temperature

Stations

Nearby Weather Stations

Station Location Temp. Windchill Dew Point Humidity Wind Precip. Elev Updated Type
                   

Watches & Warnings

There are currently no watches in effect.